Time;durP1;ratioP1;P1;durP2;ratioP2;P2;SDS_P1;SDS_P2;PMS_P1;PMS_P2;Temp;Humidity;BMP_temperature;BMP_pressure;BME280_temperature;BME280_humidity;BME280_pressure;Samples;Min_cycle;Max_cycle;Signal;HPM_P1;HPM_P2
2022/09/29 00:01:32;;;;;;;0.60;0.60;;;8.00;99.90;;;;;;5000596;27;20047;-80
2022/09/29 00:03:58;;;;;;;0.60;0.60;;;8.00;99.90;;;;;;5016899;27;20104;-81
2022/09/29 00:06:24;;;;;;;0.60;0.60;;;8.00;99.90;;;;;;5010493;27;20042;-81
2022/09/29 00:08:50;;;;;;;0.60;0.60;;;8.00;99.90;;;;;;5008737;27;20108;-80
2022/09/29 00:11:18;;;;;;;0.60;0.60;;;8.00;99.90;;;;;;5001540;27;20143;-80
2022/09/29 00:13:45;;;;;;;0.60;0.60;;;8.00;99.90;;;;;;5025799;27;20376;-80
2022/09/29 00:16:12;;;;;;;0.60;0.60;;;8.00;99.90;;;;;;4999146;28;20051;-81
2022/09/29 00:18:38;;;;;;;0.60;0.60;;;8.00;99.90;;;;;;5022817;27;20039;-80
2022/09/29 00:21:11;;;;;;;0.57;0.57;;;8.00;99.90;;;;;;5002919;27;20051;-79
2022/09/29 00:23:37;;;;;;;0.60;0.60;;;8.00;99.90;;;;;;5001516;27;20399;-81
2022/09/29 00:26:19;;;;;;;0.60;0.60;;;7.90;99.90;;;;;;5030486;27;20150;-81
2022/09/29 00:28:47;;;;;;;0.50;0.50;;;7.90;99.90;;;;;;5015139;28;20436;-80
2022/09/29 00:31:14;;;;;;;0.60;0.60;;;7.80;99.90;;;;;;5006829;28;20039;-81
2022/09/29 00:33:40;;;;;;;0.60;0.60;;;7.70;99.90;;;;;;5006679;28;20048;-80
2022/09/29 00:36:17;;;;;;;0.60;0.60;;;7.70;99.90;;;;;;5027962;27;20055;-81
2022/09/29 00:38:46;;;;;;;0.60;0.60;;;7.60;99.90;;;;;;5005619;28;20074;-80
2022/09/29 00:41:27;;;;;;;0.60;0.60;;;7.60;99.90;;;;;;5010072;28;20048;-81
2022/09/29 00:44:44;;;;;;;0.60;0.60;;;7.70;99.90;;;;;;5008796;28;20059;-80
2022/09/29 00:47:14;;;;;;;0.60;0.60;;;7.80;99.90;;;;;;5015573;27;20049;-81
2022/09/29 00:49:49;;;;;;;0.60;0.60;;;7.80;99.90;;;;;;5004605;28;20044;-81
2022/09/29 00:52:18;;;;;;;0.60;0.60;;;7.70;99.90;;;;;;4986028;28;20396;-81
2022/09/29 00:55:07;;;;;;;0.60;0.60;;;7.70;99.90;;;;;;5019030;27;20047;-81
2022/09/29 00:57:39;;;;;;;0.50;0.50;;;7.70;99.90;;;;;;5002101;27;20048;-80
2022/09/29 01:00:08;;;;;;;0.50;0.50;;;7.60;99.90;;;;;;5000668;28;20043;-80
2022/09/29 01:02:41;;;;;;;0.60;0.60;;;7.60;99.90;;;;;;5027663;27;20047;-80
2022/09/29 01:05:13;;;;;;;0.60;0.60;;;7.50;99.90;;;;;;5021061;27;20162;-80
2022/09/29 01:07:39;;;;;;;0.60;0.60;;;7.50;99.90;;;;;;5009006;27;20048;-82
2022/09/29 01:10:07;;;;;;;0.60;0.60;;;7.60;99.90;;;;;;5002781;28;20834;-81
2022/09/29 01:12:33;;;;;;;0.60;0.60;;;7.40;99.90;;;;;;5002652;28;20043;-81
2022/09/29 01:14:59;;;;;;;0.60;0.60;;;7.20;99.90;;;;;;5009153;28;20783;-81
2022/09/29 01:17:25;;;;;;;0.60;0.60;;;7.20;99.90;;;;;;5013097;27;20051;-81
2022/09/29 01:19:57;;;;;;;0.60;0.60;;;7.30;99.90;;;;;;5002484;28;20083;-81
2022/09/29 01:22:41;;;;;;;0.60;0.60;;;7.30;99.90;;;;;;5005774;27;20607;-80
2022/09/29 01:25:30;;;;;;;0.60;0.60;;;7.10;99.90;;;;;;4997784;28;20580;-80
2022/09/29 01:28:15;;;;;;;0.60;0.60;;;7.10;99.90;;;;;;5001513;28;20047;-80
2022/09/29 01:31:07;;;;;;;0.60;0.60;;;7.10;99.90;;;;;;5016859;28;20174;-81
2022/09/29 01:33:50;;;;;;;0.60;0.60;;;6.90;99.90;;;;;;5004056;27;20039;-81
2022/09/29 01:36:49;;;;;;;0.60;0.60;;;7.00;99.90;;;;;;5016149;27;20378;-81
2022/09/29 01:39:31;;;;;;;0.50;0.50;;;6.90;99.90;;;;;;5000445;27;20597;-80
2022/09/29 01:42:19;;;;;;;0.60;0.60;;;7.00;99.90;;;;;;5004277;27;20933;-80
2022/09/29 01:45:31;;;;;;;0.60;0.60;;;7.00;99.90;;;;;;5005134;27;20138;-82
2022/09/29 01:48:01;;;;;;;0.60;0.60;;;7.00;99.90;;;;;;4970209;27;20056;-79
2022/09/29 01:50:32;;;;;;;0.60;0.60;;;7.00;99.90;;;;;;5007080;27;20054;-81
2022/09/29 01:53:07;;;;;;;0.60;0.60;;;7.00;99.90;;;;;;5010260;27;20055;-81
2022/09/29 01:55:37;;;;;;;0.60;0.60;;;7.00;99.90;;;;;;5011829;27;20175;-81
2022/09/29 01:58:12;;;;;;;0.60;0.60;;;6.90;99.90;;;;;;5024301;27;20071;-82
2022/09/29 02:00:44;;;;;;;0.60;0.60;;;7.10;99.90;;;;;;5003157;27;20059;-82
2022/09/29 02:03:17;;;;;;;0.60;0.60;;;6.90;99.90;;;;;;5026780;27;20751;-82
2022/09/29 02:05:54;;;;;;;0.60;0.60;;;6.90;99.90;;;;;;5022589;27;20043;-82
2022/09/29 02:08:32;;;;;;;0.60;0.60;;;7.00;99.90;;;;;;4983945;27;20494;-81
2022/09/29 02:11:03;;;;;;;0.60;0.60;;;7.00;99.90;;;;;;5003396;27;20497;-81
2022/09/29 02:13:37;;;;;;;0.60;0.60;;;6.90;99.90;;;;;;5019628;27;20873;-81
2022/09/29 02:16:08;;;;;;;0.60;0.60;;;6.80;99.90;;;;;;5004294;27;20171;-81
2022/09/29 02:18:59;;;;;;;0.60;0.60;;;6.70;99.90;;;;;;5027425;27;20109;-80
2022/09/29 02:21:26;;;;;;;0.60;0.60;;;6.70;99.90;;;;;;5010202;27;20397;-81
2022/09/29 02:23:53;;;;;;;0.60;0.60;;;6.70;99.90;;;;;;5008251;27;20267;-80
2022/09/29 02:26:20;;;;;;;0.60;0.60;;;6.60;99.90;;;;;;5001076;27;20061;-81
2022/09/29 02:28:46;;;;;;;0.60;0.60;;;6.70;99.90;;;;;;5008597;27;20051;-81
2022/09/29 02:31:13;;;;;;;0.60;0.60;;;6.70;99.90;;;;;;5006992;27;20056;-81
2022/09/29 02:33:39;;;;;;;0.60;0.60;;;6.70;99.90;;;;;;5007600;27;20039;-81
2022/09/29 02:36:11;;;;;;;0.60;0.60;;;6.50;99.90;;;;;;4996532;27;20036;-81
2022/09/29 02:38:43;;;;;;;0.60;0.60;;;6.70;99.90;;;;;;5023319;27;20299;-81
2022/09/29 02:41:34;;;;;;;0.60;0.60;;;6.70;99.90;;;;;;5029542;27;20054;-80
2022/09/29 02:44:20;;;;;;;0.60;0.60;;;6.50;99.90;;;;;;5008614;27;20047;-81
2022/09/29 02:47:15;;;;;;;0.60;0.60;;;6.20;99.90;;;;;;4996746;28;20891;-81
2022/09/29 02:49:53;;;;;;;0.60;0.60;;;6.00;99.90;;;;;;5009802;28;20489;-81
2022/09/29 02:52:45;;;;;;;0.60;0.60;;;5.80;99.90;;;;;;5011473;27;20048;-82
2022/09/29 02:55:18;;;;;;;0.60;0.60;;;5.80;99.90;;;;;;5015445;28;20051;-80
2022/09/29 02:57:53;;;;;;;0.60;0.60;;;5.90;99.90;;;;;;5006677;28;20039;-80
2022/09/29 03:00:19;;;;;;;0.60;0.60;;;6.10;99.90;;;;;;5019161;28;20133;-81
2022/09/29 03:02:45;;;;;;;0.60;0.60;;;6.20;99.90;;;;;;5006758;27;20083;-81
2022/09/29 03:05:15;;;;;;;0.60;0.60;;;6.30;99.90;;;;;;5011966;28;20535;-81
2022/09/29 03:07:41;;;;;;;0.60;0.60;;;6.30;99.90;;;;;;5008344;27;20082;-81
2022/09/29 03:10:08;;;;;;;0.60;0.60;;;6.50;99.90;;;;;;5013992;27;20040;-81
2022/09/29 03:12:35;;;;;;;0.60;0.60;;;6.40;99.90;;;;;;5014452;28;20035;-80
2022/09/29 03:15:01;;;;;;;0.60;0.60;;;6.50;99.90;;;;;;5012095;28;20048;-80
2022/09/29 03:17:27;;;;;;;0.60;0.60;;;6.50;99.90;;;;;;5005779;27;20404;-80
2022/09/29 03:19:52;;;;;;;0.60;0.60;;;6.60;99.90;;;;;;5011885;28;20412;-80
2022/09/29 03:22:18;;;;;;;0.60;0.60;;;6.40;99.90;;;;;;5008663;28;20048;-80
2022/09/29 03:24:44;;;;;;;0.60;0.60;;;6.10;99.90;;;;;;5011027;27;20964;-80
2022/09/29 03:27:10;;;;;;;0.60;0.60;;;5.90;99.90;;;;;;5003348;27;20489;-80
2022/09/29 03:29:37;;;;;;;0.60;0.60;;;5.80;99.90;;;;;;5004563;28;20046;-80
2022/09/29 03:32:04;;;;;;;0.60;0.60;;;5.80;99.90;;;;;;5001408;28;20044;-80
2022/09/29 03:34:31;;;;;;;0.70;0.70;;;5.90;99.90;;;;;;5007073;27;20051;-80
2022/09/29 03:36:57;;;;;;;0.60;0.60;;;6.00;99.90;;;;;;4998596;28;20230;-79
2022/09/29 03:39:23;;;;;;;0.60;0.60;;;6.00;99.90;;;;;;4988665;28;20408;-80
2022/09/29 03:41:50;;;;;;;0.70;0.70;;;6.00;99.90;;;;;;4999007;27;20446;-80
2022/09/29 03:44:16;;;;;;;0.70;0.70;;;6.00;99.90;;;;;;5000358;28;20545;-80
2022/09/29 03:46:42;;;;;;;0.60;0.60;;;6.00;99.90;;;;;;4984570;28;20894;-80
2022/09/29 03:49:13;;;;;;;0.60;0.60;;;6.00;99.90;;;;;;5005247;27;20048;-80
2022/09/29 03:51:39;;;;;;;0.60;0.60;;;5.80;99.90;;;;;;5010567;27;20444;-80
2022/09/29 03:54:06;;;;;;;0.60;0.60;;;5.80;99.90;;;;;;4983454;28;20437;-80
2022/09/29 03:56:32;;;;;;;0.60;0.60;;;5.70;99.90;;;;;;5004338;27;20710;-80
2022/09/29 03:58:58;;;;;;;0.60;0.60;;;5.60;99.90;;;;;;5008872;27;20105;-80
2022/09/29 04:01:24;;;;;;;0.60;0.60;;;5.50;99.90;;;;;;5004759;28;20084;-80
2022/09/29 04:03:50;;;;;;;0.60;0.60;;;5.50;99.90;;;;;;4997362;28;20048;-80
2022/09/29 04:06:15;;;;;;;0.60;0.60;;;5.40;99.90;;;;;;5017123;27;20513;-80
2022/09/29 04:08:41;;;;;;;0.60;0.60;;;5.50;99.90;;;;;;5003705;28;20253;-80
2022/09/29 04:11:08;;;;;;;0.60;0.60;;;5.60;99.90;;;;;;5002329;28;20129;-80
2022/09/29 04:13:34;;;;;;;0.60;0.60;;;5.60;99.90;;;;;;5002849;28;20119;-80
2022/09/29 04:16:01;;;;;;;0.60;0.60;;;5.70;99.90;;;;;;5002301;28;20880;-79
2022/09/29 04:18:28;;;;;;;0.60;0.60;;;5.80;99.90;;;;;;5002702;28;20048;-80
2022/09/29 04:20:59;;;;;;;0.60;0.60;;;5.70;99.90;;;;;;4999066;28;20078;-80
2022/09/29 04:23:29;;;;;;;0.60;0.60;;;5.80;99.90;;;;;;5008544;28;20632;-80
2022/09/29 04:25:56;;;;;;;0.60;0.60;;;5.50;99.90;;;;;;5003390;27;20232;-80
2022/09/29 04:28:23;;;;;;;0.60;0.60;;;5.40;99.90;;;;;;5000151;28;20047;-80
2022/09/29 04:30:49;;;;;;;0.60;0.60;;;5.30;99.90;;;;;;4987991;28;20461;-80
2022/09/29 04:33:15;;;;;;;0.60;0.60;;;5.20;99.90;;;;;;4995742;28;20044;-80
2022/09/29 04:35:41;;;;;;;0.60;0.60;;;5.30;99.90;;;;;;4998366;28;20587;-81
2022/09/29 04:38:07;;;;;;;0.70;0.70;;;5.30;99.90;;;;;;5006429;28;20048;-80
2022/09/29 04:40:35;;;;;;;0.60;0.60;;;5.20;99.90;;;;;;4998223;28;20449;-80
2022/09/29 04:43:01;;;;;;;0.60;0.60;;;5.30;99.90;;;;;;4994880;28;20048;-80
2022/09/29 04:45:27;;;;;;;0.60;0.60;;;5.30;99.90;;;;;;4998734;28;20083;-80
2022/09/29 04:47:53;;;;;;;0.60;0.60;;;5.20;99.90;;;;;;5013368;28;20095;-80
2022/09/29 04:50:19;;;;;;;0.60;0.60;;;5.10;99.90;;;;;;4998644;28;20091;-80
2022/09/29 04:52:45;;;;;;;0.60;0.60;;;5.20;99.90;;;;;;5001231;27;20093;-80
2022/09/29 04:55:11;;;;;;;0.60;0.60;;;5.20;99.90;;;;;;5005434;28;20686;-80
2022/09/29 04:57:40;;;;;;;0.60;0.60;;;5.10;99.90;;;;;;5021790;27;20044;-80
2022/09/29 05:00:06;;;;;;;0.70;0.70;;;5.00;99.90;;;;;;5007537;28;20052;-80
2022/09/29 05:02:33;;;;;;;0.60;0.60;;;5.00;99.90;;;;;;5001721;28;20043;-80
2022/09/29 05:05:00;;;;;;;0.70;0.70;;;4.90;99.90;;;;;;4996447;28;20058;-80
2022/09/29 05:07:26;;;;;;;0.70;0.70;;;4.90;99.90;;;;;;5014891;27;20105;-80
2022/09/29 05:09:52;;;;;;;0.68;0.68;;;4.90;99.90;;;;;;4997505;28;20555;-80
2022/09/29 05:12:19;;;;;;;0.70;0.70;;;4.90;99.90;;;;;;5017778;27;20039;-80
2022/09/29 05:14:46;;;;;;;0.60;0.60;;;4.80;99.90;;;;;;5016863;27;20489;-80
2022/09/29 05:17:12;;;;;;;0.70;0.70;;;4.90;99.90;;;;;;4990536;27;20520;-79
2022/09/29 05:19:38;;;;;;;0.70;0.70;;;5.10;99.90;;;;;;5003327;27;20043;-80
2022/09/29 05:22:05;;;;;;;0.60;0.60;;;4.90;99.90;;;;;;5019547;27;20040;-80
2022/09/29 05:24:31;;;;;;;0.70;0.70;;;4.90;99.90;;;;;;5000935;27;20591;-80
2022/09/29 05:26:56;;;;;;;0.60;0.60;;;5.00;99.90;;;;;;5007662;28;20051;-80
2022/09/29 05:29:22;;;;;;;0.60;0.60;;;4.70;99.90;;;;;;5029275;27;20078;-80
2022/09/29 05:31:50;;;;;;;0.60;0.60;;;4.70;99.90;;;;;;5023389;27;20039;-80
2022/09/29 05:34:16;;;;;;;0.60;0.60;;;4.80;99.90;;;;;;5006518;28;20062;-79
2022/09/29 05:36:43;;;;;;;0.70;0.70;;;4.70;99.90;;;;;;5000974;27;20557;-79
2022/09/29 05:39:10;;;;;;;0.60;0.60;;;4.70;99.90;;;;;;5020297;27;20657;-80
2022/09/29 05:41:36;;;;;;;0.60;0.60;;;4.60;99.90;;;;;;4983688;27;20467;-80
2022/09/29 05:44:02;;;;;;;0.60;0.60;;;4.70;99.90;;;;;;4982743;27;21163;-79
2022/09/29 05:46:28;;;;;;;0.60;0.60;;;4.60;99.90;;;;;;5006350;27;20327;-80
2022/09/29 05:48:54;;;;;;;0.60;0.60;;;4.70;99.90;;;;;;5007350;27;20170;-80
2022/09/29 05:51:22;;;;;;;0.70;0.70;;;4.80;99.90;;;;;;5000052;27;20520;-81
2022/09/29 05:53:48;;;;;;;0.63;0.63;;;4.80;99.90;;;;;;5010272;27;20048;-80
2022/09/29 05:56:23;;;;;;;0.63;0.63;;;4.80;99.90;;;;;;5001898;27;20517;-80
2022/09/29 05:58:49;;;;;;;0.60;0.60;;;4.70;99.90;;;;;;4986739;27;21729;-80
2022/09/29 06:01:21;;;;;;;0.60;0.60;;;4.80;99.90;;;;;;5019739;27;20375;-80
2022/09/29 06:03:47;;;;;;;0.60;0.60;;;4.60;99.90;;;;;;4998987;28;20048;-81
2022/09/29 06:06:19;;;;;;;0.70;0.70;;;4.50;99.90;;;;;;5004148;28;20567;-80
2022/09/29 06:08:48;;;;;;;0.65;0.65;;;4.50;99.90;;;;;;5017833;27;20981;-80
2022/09/29 06:11:17;;;;;;;0.60;0.60;;;4.60;99.90;;;;;;5001665;28;20175;-80
2022/09/29 06:13:45;;;;;;;0.63;0.63;;;4.60;99.90;;;;;;5006369;27;20514;-80
2022/09/29 06:16:12;;;;;;;0.60;0.60;;;4.70;99.90;;;;;;4993152;27;20115;-80
2022/09/29 06:18:37;;;;;;;0.70;0.70;;;4.80;99.90;;;;;;5001784;28;20206;-79
2022/09/29 06:21:10;;;;;;;0.60;0.60;;;4.80;99.90;;;;;;5007840;27;20047;-79
2022/09/29 06:23:37;;;;;;;0.60;0.60;;;4.90;99.90;;;;;;5008045;27;20553;-80
2022/09/29 06:26:05;;;;;;;0.60;0.60;;;4.90;99.90;;;;;;4997068;27;20047;-80
2022/09/29 06:28:31;;;;;;;0.60;0.60;;;4.80;99.90;;;;;;5002159;27;20127;-81
2022/09/29 06:30:59;;;;;;;0.70;0.70;;;4.80;99.90;;;;;;5022069;27;20089;-80
2022/09/29 06:33:26;;;;;;;0.60;0.60;;;5.00;99.90;;;;;;5020725;27;20752;-80
2022/09/29 06:38:37;;;;;;;0.70;0.70;;;5.10;99.90;;;;;;5000002;28;20570;-79
2022/09/29 06:41:04;;;;;;;0.70;0.70;;;5.30;99.90;;;;;;5010434;27;20051;-80
2022/09/29 06:43:30;;;;;;;0.70;0.70;;;5.50;99.90;;;;;;5000501;27;20346;-80
2022/09/29 06:45:55;;;;;;;0.70;0.70;;;5.70;99.90;;;;;;5011467;27;20055;-80
2022/09/29 06:48:22;;;;;;;0.70;0.70;;;5.80;99.90;;;;;;5004600;27;20063;-80
2022/09/29 06:50:47;;;;;;;0.60;0.60;;;5.90;99.90;;;;;;5002005;27;20413;-81
2022/09/29 06:53:13;;;;;;;0.70;0.70;;;6.00;99.90;;;;;;5004205;27;20047;-80
2022/09/29 06:55:39;;;;;;;0.70;0.70;;;6.10;99.90;;;;;;4986427;27;20054;-79
2022/09/29 06:58:05;;;;;;;0.70;0.70;;;6.10;99.90;;;;;;5005764;27;20108;-81
2022/09/29 07:00:32;;;;;;;0.70;0.70;;;6.20;99.90;;;;;;5002096;27;21142;-79
2022/09/29 07:02:58;;;;;;;0.70;0.70;;;6.30;99.90;;;;;;5012210;27;20035;-79
2022/09/29 07:05:23;;;;;;;0.70;0.70;;;6.30;99.90;;;;;;5010127;27;20557;-81
2022/09/29 07:07:49;;;;;;;0.60;0.60;;;6.40;99.90;;;;;;5030000;27;20622;-81
2022/09/29 07:10:15;;;;;;;0.60;0.60;;;6.50;99.90;;;;;;5003771;28;20436;-80
2022/09/29 07:12:45;;;;;;;0.60;0.60;;;6.50;99.90;;;;;;5011645;27;20339;-80
2022/09/29 07:15:12;;;;;;;0.60;0.60;;;6.60;99.90;;;;;;5008663;27;20066;-80
2022/09/29 07:17:39;;;;;;;0.70;0.70;;;6.70;99.90;;;;;;4990990;27;20047;-80
2022/09/29 07:20:06;;;;;;;0.70;0.70;;;6.90;99.90;;;;;;5022363;27;20046;-80
2022/09/29 07:22:32;;;;;;;0.65;0.65;;;6.90;99.90;;;;;;5003759;27;20440;-81
2022/09/29 07:24:57;;;;;;;0.60;0.60;;;7.00;99.90;;;;;;4994636;27;20407;-80
2022/09/29 07:27:23;;;;;;;0.60;0.60;;;7.10;99.90;;;;;;4999608;28;20047;-80
2022/09/29 07:29:50;;;;;;;0.60;0.60;;;7.20;99.90;;;;;;5007645;27;20047;-81
2022/09/29 07:32:17;;;;;;;0.70;0.70;;;7.30;99.90;;;;;;5009562;28;20429;-81
2022/09/29 07:34:43;;;;;;;0.60;0.60;;;7.40;99.90;;;;;;5005613;27;20525;-80
2022/09/29 07:37:10;;;;;;;0.60;0.60;;;7.70;99.90;;;;;;5009094;27;20066;-81
2022/09/29 07:39:36;;;;;;;0.60;0.60;;;7.80;99.90;;;;;;5021942;27;20043;-80
2022/09/29 07:42:02;;;;;;;0.60;0.60;;;7.80;99.90;;;;;;5006827;27;20530;-80
2022/09/29 07:44:31;;;;;;;0.60;0.60;;;7.90;99.90;;;;;;5009377;28;20150;-80
2022/09/29 07:46:57;;;;;;;0.60;0.60;;;8.00;99.90;;;;;;5021146;27;20058;-80
2022/09/29 07:49:24;;;;;;;0.60;0.60;;;8.20;99.90;;;;;;4990020;27;20075;-82
2022/09/29 07:51:51;;;;;;;0.60;0.60;;;8.30;99.90;;;;;;4997655;27;20047;-80
2022/09/29 07:54:17;;;;;;;0.60;0.60;;;8.10;99.90;;;;;;5011923;27;20062;-81
2022/09/29 07:56:43;;;;;;;0.60;0.60;;;8.20;99.90;;;;;;5002563;27;20892;-81
2022/09/29 07:59:12;;;;;;;0.60;0.60;;;8.30;99.90;;;;;;5017943;27;20548;-80
2022/09/29 08:01:38;;;;;;;0.60;0.60;;;8.30;99.90;;;;;;5001787;27;20055;-81
2022/09/29 08:04:04;;;;;;;0.60;0.60;;;8.40;99.90;;;;;;4994286;27;20587;-80
2022/09/29 08:06:32;;;;;;;0.60;0.60;;;8.30;99.90;;;;;;5012582;27;20070;-81
2022/09/29 08:09:00;;;;;;;0.60;0.60;;;8.40;99.90;;;;;;4992090;27;20412;-79
2022/09/29 08:11:27;;;;;;;0.60;0.60;;;8.50;99.90;;;;;;5001053;28;20063;-80
2022/09/29 08:13:53;;;;;;;0.50;0.50;;;8.50;99.90;;;;;;5002897;28;20047;-80
2022/09/29 08:16:19;;;;;;;0.52;0.52;;;8.60;99.90;;;;;;4997996;28;20048;-80
2022/09/29 08:18:45;;;;;;;0.50;0.50;;;8.70;99.90;;;;;;5018799;27;20085;-80
2022/09/29 08:21:14;;;;;;;0.60;0.60;;;8.70;99.90;;;;;;4996410;28;20051;-80
2022/09/29 08:23:41;;;;;;;0.60;0.60;;;8.80;99.90;;;;;;4979901;28;20050;-80
2022/09/29 08:26:09;;;;;;;0.60;0.60;;;8.80;99.90;;;;;;4982947;27;20551;-83
2022/09/29 08:28:37;;;;;;;0.60;0.60;;;8.90;99.90;;;;;;4999543;28;21013;-81
2022/09/29 08:31:05;;;;;;;0.60;0.60;;;8.90;99.90;;;;;;4987765;28;20055;-81
2022/09/29 08:33:31;;;;;;;0.60;0.60;;;8.90;99.90;;;;;;5015512;28;20961;-81
2022/09/29 08:35:58;;;;;;;0.60;0.60;;;9.10;99.90;;;;;;5012478;28;20789;-81
2022/09/29 08:38:25;;;;;;;0.60;0.60;;;9.10;99.90;;;;;;4980265;28;20044;-81
2022/09/29 08:40:53;;;;;;;0.60;0.60;;;9.20;99.90;;;;;;4999164;28;20043;-81
2022/09/29 08:43:25;;;;;;;0.60;0.60;;;9.10;99.90;;;;;;5021417;28;20773;-80
2022/09/29 08:46:20;;;;;;;0.60;0.60;;;9.20;99.90;;;;;;5009772;28;20277;-80
2022/09/29 08:48:46;;;;;;;0.60;0.60;;;9.30;99.90;;;;;;5004667;27;20063;-80
2022/09/29 08:51:50;;;;;;;0.60;0.60;;;9.40;99.90;;;;;;4997948;28;20059;-80
2022/09/29 08:54:29;;;;;;;0.60;0.60;;;9.60;99.90;;;;;;5005444;27;20242;-80
2022/09/29 08:56:55;;;;;;;0.60;0.60;;;9.80;99.90;;;;;;5008075;27;20074;-81
2022/09/29 08:59:24;;;;;;;0.50;0.50;;;9.80;99.90;;;;;;4985745;28;20142;-81
2022/09/29 09:02:19;;;;;;;0.50;0.50;;;10.00;99.90;;;;;;4999912;28;20054;-81
2022/09/29 09:05:05;;;;;;;0.50;0.50;;;10.10;99.90;;;;;;5005757;27;20625;-81
2022/09/29 09:07:39;;;;;;;0.60;0.60;;;10.20;99.90;;;;;;5026065;27;20043;-81
2022/09/29 09:10:55;;;;;;;0.50;0.50;;;10.50;99.90;;;;;;5007734;27;20514;-81
2022/09/29 09:14:03;;;;;;;0.50;0.50;;;10.60;99.90;;;;;;4995350;27;21095;-81
2022/09/29 09:17:03;;;;;;;0.60;0.60;;;10.60;99.90;;;;;;4991954;27;20065;-81
2022/09/29 09:20:09;;;;;;;0.60;0.60;;;10.50;99.90;;;;;;5005280;27;20051;-80
2022/09/29 09:22:47;;;;;;;0.50;0.50;;;10.60;99.90;;;;;;4998509;27;20046;-82
2022/09/29 09:25:29;;;;;;;0.50;0.50;;;10.60;99.90;;;;;;5006398;27;20482;-82
2022/09/29 09:28:20;;;;;;;0.50;0.50;;;11.00;99.90;;;;;;5018329;27;20205;-81
2022/09/29 09:30:52;;;;;;;0.50;0.50;;;11.10;99.90;;;;;;4998333;27;20372;-81
2022/09/29 09:33:25;;;;;;;0.60;0.60;;;11.50;99.90;;;;;;5018378;27;20048;-82
2022/09/29 09:35:57;;;;;;;0.50;0.50;;;11.40;99.90;;;;;;5000339;27;21031;-82
2022/09/29 09:38:27;;;;;;;0.50;0.50;;;11.50;99.90;;;;;;5019053;27;20594;-83
2022/09/29 09:40:57;;;;;;;0.50;0.50;;;11.80;99.90;;;;;;5001883;27;20062;-83
2022/09/29 09:43:33;;;;;;;0.50;0.50;;;11.70;99.90;;;;;;4999502;27;20555;-82
2022/09/29 09:45:59;;;;;;;0.50;0.50;;;12.00;99.90;;;;;;5003502;28;20051;-83
2022/09/29 09:49:06;;;;;;;0.50;0.50;;;12.00;99.90;;;;;;5002385;28;20129;-81
2022/09/29 09:52:00;;;;;;;0.50;0.50;;;12.20;99.90;;;;;;4985500;28;20989;-82
2022/09/29 09:54:36;;;;;;;0.50;0.50;;;12.20;99.90;;;;;;4983968;28;20857;-84
2022/09/29 09:57:26;;;;;;;0.50;0.50;;;12.10;99.90;;;;;;5002957;28;20059;-82
2022/09/29 10:00:14;;;;;;;0.60;0.60;;;12.20;99.90;;;;;;4996776;28;20966;-81
2022/09/29 10:02:51;;;;;;;0.50;0.50;;;12.60;99.90;;;;;;4990817;28;20332;-81
2022/09/29 10:05:20;;;;;;;0.50;0.50;;;12.80;99.90;;;;;;5008632;28;20059;-82
2022/09/29 10:07:48;;;;;;;0.60;0.60;;;12.80;99.90;;;;;;5000246;28;20326;-81
2022/09/29 10:10:20;;;;;;;0.50;0.50;;;12.90;99.90;;;;;;4997918;28;20442;-80
2022/09/29 10:13:01;;;;;;;0.50;0.50;;;12.90;99.90;;;;;;4999045;28;20070;-81
2022/09/29 10:15:29;;;;;;;0.55;0.55;;;12.90;99.90;;;;;;5002166;28;20062;-81
2022/09/29 10:18:10;;;;;;;0.50;0.50;;;13.00;99.90;;;;;;4999435;28;20139;-82
2022/09/29 10:20:37;;;;;;;0.60;0.60;;;13.00;99.90;;;;;;5000339;28;20482;-81
2022/09/29 10:23:27;;;;;;;0.50;0.50;;;13.10;99.90;;;;;;4999452;28;20040;-80
2022/09/29 10:26:19;;;;;;;0.50;0.50;;;13.20;99.90;;;;;;4998531;28;20066;-80
2022/09/29 10:29:23;;;;;;;0.50;0.50;;;13.40;99.90;;;;;;4987879;28;20284;-81
2022/09/29 10:32:00;;;;;;;0.50;0.50;;;13.70;99.90;;;;;;4978826;28;20568;-80
2022/09/29 10:34:28;;;;;;;0.50;0.50;;;13.90;99.90;;;;;;5001281;28;20144;-80
2022/09/29 10:37:22;;;;;;;0.50;0.50;;;13.90;99.90;;;;;;5000399;28;20050;-80
2022/09/29 10:39:49;;;;;;;0.50;0.50;;;14.00;99.90;;;;;;4975034;28;20061;-80
2022/09/29 10:42:24;;;;;;;0.50;0.50;;;14.30;99.90;;;;;;4990869;28;20104;-82
2022/09/29 10:45:09;;;;;;;0.50;0.50;;;14.30;99.90;;;;;;4992879;28;20052;-82
2022/09/29 10:47:39;;;;;;;0.50;0.50;;;14.50;99.90;;;;;;4969664;27;1383714;-81
2022/09/29 10:50:14;;;;;;;0.50;0.50;;;14.70;99.90;;;;;;4994568;27;20066;-80
2022/09/29 10:52:53;;;;;;;0.50;0.50;;;15.00;99.90;;;;;;5000670;27;20869;-79
2022/09/29 10:55:26;;;;;;;0.40;0.40;;;15.10;99.90;;;;;;5016593;27;20931;-79
2022/09/29 10:58:00;;;;;;;0.40;0.40;;;15.40;99.90;;;;;;4996054;27;20054;-80
2022/09/29 11:00:32;;;;;;;0.40;0.40;;;15.40;99.90;;;;;;4986994;27;20051;-79
2022/09/29 11:03:25;;;;;;;0.50;0.50;;;15.60;99.90;;;;;;4977699;27;20809;-77
2022/09/29 11:06:10;;;;;;;0.40;0.40;;;15.90;99.90;;;;;;4997554;27;20422;-77
2022/09/29 11:08:55;;;;;;;0.50;0.50;;;15.80;99.90;;;;;;4984194;27;20099;-80
2022/09/29 11:11:23;;;;;;;0.40;0.40;;;16.00;99.90;;;;;;4998857;27;20087;-78
2022/09/29 11:13:51;;;;;;;0.40;0.40;;;16.00;99.90;;;;;;5018336;27;21002;-78
2022/09/29 11:16:30;;;;;;;0.50;0.50;;;16.30;99.90;;;;;;5020005;27;21087;-80
2022/09/29 11:19:01;;;;;;;0.50;0.50;;;16.50;99.90;;;;;;5016691;27;20678;-78
2022/09/29 11:21:36;;;;;;;0.45;0.45;;;16.60;99.90;;;;;;5012969;27;20454;-78
2022/09/29 11:24:27;;;;;;;0.40;0.40;;;16.40;99.90;;;;;;5008024;27;20050;-79
2022/09/29 11:26:53;;;;;;;0.40;0.40;;;16.40;99.90;;;;;;4997997;27;20632;-79
2022/09/29 11:29:49;;;;;;;0.40;0.40;;;16.90;99.90;;;;;;5018478;27;20065;-78
2022/09/29 11:32:29;;;;;;;0.50;0.50;;;16.70;99.90;;;;;;4996778;27;20575;-79
2022/09/29 11:35:22;;;;;;;0.50;0.50;;;16.30;99.90;;;;;;5002231;27;20541;-79
2022/09/29 11:38:15;;;;;;;0.40;0.40;;;16.70;99.90;;;;;;4999248;28;20073;-79
2022/09/29 11:40:54;;;;;;;0.40;0.40;;;17.10;99.90;;;;;;5019336;27;20924;-77
2022/09/29 11:43:32;;;;;;;0.40;0.40;;;17.30;99.90;;;;;;4979486;27;20047;-79
2022/09/29 11:46:30;;;;;;;0.40;0.40;;;17.20;99.90;;;;;;5016971;27;20069;-79
2022/09/29 11:49:17;;;;;;;0.40;0.40;;;17.20;99.90;;;;;;5017250;27;20062;-79
2022/09/29 11:51:55;;;;;;;0.40;0.40;;;17.20;99.90;;;;;;5032944;27;21190;-79
2022/09/29 11:54:46;;;;;;;0.40;0.40;;;17.30;99.90;;;;;;5021353;27;20188;-80
2022/09/29 11:57:35;;;;;;;0.40;0.40;;;17.50;99.90;;;;;;4955717;27;20111;-79
2022/09/29 12:00:08;;;;;;;0.40;0.40;;;17.50;99.90;;;;;;4986804;27;20154;-78
2022/09/29 12:02:40;;;;;;;0.40;0.40;;;17.60;99.90;;;;;;5008448;27;20412;-79
2022/09/29 12:05:32;;;;;;;0.40;0.40;;;17.60;99.90;;;;;;5015141;27;20043;-79
2022/09/29 12:08:16;;;;;;;0.50;0.50;;;17.70;99.90;;;;;;4999621;28;20051;-79
2022/09/29 12:10:57;;;;;;;0.40;0.40;;;17.80;99.90;;;;;;5011779;27;20051;-79
2022/09/29 12:13:38;;;;;;;0.40;0.40;;;17.90;99.90;;;;;;5015749;27;20798;-78
2022/09/29 12:16:11;;;;;;;0.40;0.40;;;17.70;99.90;;;;;;5017818;27;20063;-77
2022/09/29 12:18:47;;;;;;;0.40;0.40;;;17.90;99.90;;;;;;4996682;28;20044;-78
2022/09/29 12:21:16;;;;;;;0.40;0.40;;;18.00;99.90;;;;;;5020108;28;20131;-78
2022/09/29 12:23:44;;;;;;;0.43;0.43;;;18.00;99.90;;;;;;5020174;27;20594;-79
2022/09/29 12:26:10;;;;;;;0.40;0.40;;;17.90;99.90;;;;;;4986657;27;20044;-78
2022/09/29 12:28:45;;;;;;;0.40;0.40;;;18.00;99.90;;;;;;5019509;27;20043;-77
2022/09/29 12:31:24;;;;;;;0.40;0.40;;;18.10;99.90;;;;;;5023326;28;20097;-75
2022/09/29 12:34:04;;;;;;;0.40;0.40;;;18.20;99.90;;;;;;4999347;28;20108;-76
2022/09/29 12:36:52;;;;;;;0.60;0.60;;;18.00;99.90;;;;;;4998191;28;20047;-76
2022/09/29 12:39:32;;;;;;;0.40;0.40;;;18.20;99.90;;;;;;5014470;28;20105;-77
2022/09/29 12:42:45;;;;;;;0.40;0.40;;;18.30;99.90;;;;;;5003299;28;20042;-78
2022/09/29 12:45:38;;;;;;;0.40;0.40;;;18.20;99.90;;;;;;4995587;28;20054;-79
2022/09/29 12:48:24;;;;;;;0.30;0.30;;;18.00;99.90;;;;;;4995388;28;20058;-79
2022/09/29 12:50:58;;;;;;;0.40;0.40;;;18.10;99.90;;;;;;5019685;28;20058;-79
2022/09/29 12:53:38;;;;;;;0.40;0.40;;;17.90;99.90;;;;;;5010643;28;20074;-79
2022/09/29 12:56:19;;;;;;;0.40;0.40;;;18.10;99.90;;;;;;4993266;28;20624;-77
2022/09/29 12:59:19;;;;;;;0.40;0.40;;;17.90;99.90;;;;;;4989109;28;20556;-79
2022/09/29 13:01:51;;;;;;;0.50;0.50;;;18.00;99.90;;;;;;5022885;27;20512;-79
2022/09/29 13:04:33;;;;;;;0.40;0.40;;;18.10;99.90;;;;;;5000730;28;20071;-80
2022/09/29 13:07:29;;;;;;;0.32;0.32;;;18.20;99.90;;;;;;5016881;28;20887;-79
2022/09/29 13:10:21;;;;;;;0.40;0.40;;;18.30;99.90;;;;;;5017539;28;20036;-79
2022/09/29 13:13:30;;;;;;;0.40;0.40;;;18.40;99.90;;;;;;4974525;28;20305;-79
2022/09/29 13:16:09;;;;;;;0.45;0.45;;;18.30;99.90;;;;;;4997283;28;20064;-79
2022/09/29 13:19:05;;;;;;;0.40;0.40;;;18.30;99.90;;;;;;5018407;28;20119;-79
2022/09/29 13:21:31;;;;;;;0.40;0.40;;;18.10;99.90;;;;;;5004276;28;20055;-79
2022/09/29 13:24:10;;;;;;;0.40;0.40;;;18.00;99.90;;;;;;4998383;28;20388;-79
2022/09/29 13:26:36;;;;;;;0.40;0.40;;;17.90;99.90;;;;;;4986187;28;20051;-79
2022/09/29 13:29:11;;;;;;;0.40;0.40;;;17.90;99.90;;;;;;5017668;28;20111;-78